デンパサール の空港の天気 - METARとTAF

デンパサール国際空港 ( WADD / DPS ) - インドネシア バリ島デンパサール
飛行場実況気象(Metar)
観測時間06/25 21:00 WITA (06/25 13:00 UTC)
風向・風速東南東 8m/s
視程10km以上
天気現象
少しの雲 雲底高度 520m
気温26℃
湿度79%
気圧1012hPa
METARWADD 251300Z 11015KT 9999 FEW017 26/22 Q1012 NOSIG
過去の天気等 Google飛行場航空写真 Wunderground天気予報

過去48時間のMETAR

飛行場予報(TAF)
発表時間: 6/25 19:00 WITA (6/25 11:00 UTC)
予報対象時間: 25日20時 WITA ~ 26日20時 WITA
風向・風速東南東 8m/s
視程10km以上
全天の4割程度の雲 雲底高度 520m
26日5時 WITA ~ 26日8時 WITA に一時的に
少しの積乱雲 雲底高度 490m
全天の4割程度の雲 雲底高度 520m
TAF WADD 251100Z 2512/2612 12015KT 9999 SCT017
TEMPO 2521/2600 FEW016CB SCT017